Terminal Aerodrome Forecast
Issued by NWS

Current Version | Previous Version | Text Only | Print | Product List | Glossary Off
Versions: 1 2 3 4 5 6 7 8 9 10 11 12 13 14 15 16 17 18 19 20 21 22 23 24 25

000
FTUS41 KILN 271126
TAFLUK
TAF
KLUK 271126Z 2712/2812 00000KT 1/4SM FG VV002
     FM271230 00000KT 2SM BR SCT002 SCT150 BKN250
     FM271300 00000KT 5SM HZ SCT150 BKN250
     FM271500 20008KT P6SM SCT040 BKN250
     FM280100 00000KT P6SM SCT250
     FM280800 00000KT 3SM BR BKN150=

USA.gov is the U.S. government's official web portal to all federal, state and local government web resources and services.